RYR64E EHAM-EGAC
Flight info
| Callsign | RYR64E |
|---|---|
| Flight time | 1h 19m |
| Altitude | 34000 |
| Route | BERGI5V BERGI L602 NALAX L46 GETNO DCT REMSI DCT NINEB M148 MAGEE DCT |
| Aircraft | B738/M-SDE2E3FGHIRWXY/LB1 |
Departure
| Time | 2026-05-04 18:59 |
|---|---|
| Airport | Amsterdam Airport Schiphol (EHAM) |
Arrival
| Time | 2026-05-04 20:19 |
|---|---|
| Airport | George Best Belfast City Airport (EGAC) |
| Time | Latitude | Longitude | Altitude | Speed | Heading |
|---|---|---|---|---|---|
| 2026-05-04 18:31 | 52.30965 | 4.75300 | -2 ft | 0 kts | 148° |
| 2026-05-04 18:43 | 52.30979 | 4.75286 | -2 ft | 4 kts | 146° |
| 2026-05-04 18:43 | 52.30999 | 4.75259 | -2 ft | 4 kts | 117° |
| 2026-05-04 18:43 | 52.31002 | 4.75233 | -2 ft | 0 kts | 57° |
| 2026-05-04 18:44 | 52.31001 | 4.75233 | -2 ft | 0 kts | 57° |
| 2026-05-04 18:46 | 52.31002 | 4.75233 | -2 ft | 0 kts | 57° |
| 2026-05-04 18:46 | 52.31002 | 4.75236 | -2 ft | 1 kts | 57° |
| 2026-05-04 18:47 | 52.31033 | 4.75282 | -2 ft | 10 kts | 30° |
| 2026-05-04 18:47 | 52.31100 | 4.75372 | -2 ft | 15 kts | 56° |
| 2026-05-04 18:47 | 52.31161 | 4.75468 | -2 ft | 10 kts | 1° |
| 2026-05-04 18:47 | 52.31253 | 4.75458 | -2 ft | 16 kts | 358° |
| 2026-05-04 18:48 | 52.31354 | 4.75448 | -2 ft | 14 kts | 356° |
| 2026-05-04 18:48 | 52.31422 | 4.75349 | -2 ft | 19 kts | 270° |
| 2026-05-04 18:48 | 52.31413 | 4.75070 | -2 ft | 30 kts | 267° |
| 2026-05-04 18:48 | 52.31408 | 4.74732 | -2 ft | 22 kts | 287° |
| 2026-05-04 18:49 | 52.31483 | 4.74594 | -2 ft | 17 kts | 267° |
| 2026-05-04 18:49 | 52.31475 | 4.74383 | -2 ft | 20 kts | 266° |
| 2026-05-04 18:49 | 52.31562 | 4.74299 | -2 ft | 17 kts | 4° |
| 2026-05-04 18:49 | 52.31666 | 4.74308 | -2 ft | 15 kts | 3° |
| 2026-05-04 18:50 | 52.31780 | 4.74320 | -2 ft | 18 kts | 4° |
| 2026-05-04 18:50 | 52.31922 | 4.74333 | -2 ft | 25 kts | 3° |
| 2026-05-04 18:50 | 52.32030 | 4.74265 | -2 ft | 17 kts | 284° |
| 2026-05-04 18:50 | 52.32037 | 4.74072 | -3 ft | 19 kts | 274° |
| 2026-05-04 18:51 | 52.32043 | 4.73871 | -2 ft | 16 kts | 272° |
| 2026-05-04 18:51 | 52.32050 | 4.73694 | -2 ft | 19 kts | 273° |
| 2026-05-04 18:51 | 52.32055 | 4.73527 | -2 ft | 16 kts | 273° |
| 2026-05-04 18:51 | 52.32106 | 4.73332 | -2 ft | 22 kts | 319° |
| 2026-05-04 18:52 | 52.32249 | 4.73131 | -2 ft | 31 kts | 319° |
| 2026-05-04 18:52 | 52.32381 | 4.72946 | -2 ft | 18 kts | 319° |
| 2026-05-04 18:52 | 52.32456 | 4.72840 | -2 ft | 15 kts | 320° |
| 2026-05-04 18:52 | 52.32550 | 4.72707 | -2 ft | 20 kts | 319° |
| 2026-05-04 18:53 | 52.32668 | 4.72538 | -2 ft | 22 kts | 316° |
| 2026-05-04 18:53 | 52.32736 | 4.72415 | -2 ft | 17 kts | 311° |
| 2026-05-04 18:53 | 52.32822 | 4.72256 | -2 ft | 18 kts | 310° |
| 2026-05-04 18:53 | 52.32907 | 4.72097 | -2 ft | 21 kts | 311° |
| 2026-05-04 18:54 | 52.32992 | 4.71892 | -2 ft | 20 kts | 262° |
| 2026-05-04 18:54 | 52.33013 | 4.71645 | -2 ft | 22 kts | 312° |
| 2026-05-04 18:54 | 52.33095 | 4.71493 | -2 ft | 13 kts | 309° |
| 2026-05-04 18:54 | 52.33175 | 4.71343 | -2 ft | 24 kts | 311° |
| 2026-05-04 18:55 | 52.33285 | 4.71140 | -2 ft | 16 kts | 311° |
| 2026-05-04 18:55 | 52.33306 | 4.71101 | -3 ft | 0 kts | 311° |
| 2026-05-04 18:57 | 52.33312 | 4.71091 | -3 ft | 4 kts | 311° |
| 2026-05-04 18:57 | 52.33359 | 4.71003 | -3 ft | 15 kts | 302° |
| 2026-05-04 18:57 | 52.33414 | 4.70944 | -3 ft | 1 kts | 1° |
| 2026-05-04 18:57 | 52.33428 | 4.70945 | -3 ft | 0 kts | 3° |
| 2026-05-04 18:58 | 52.33552 | 4.70955 | -2 ft | 56 kts | 3° |
| 2026-05-04 18:59 | 52.34240 | 4.71018 | -4 ft | 139 kts | 3° |
| 2026-05-04 18:59 | 52.35389 | 4.71111 | 360 ft | 181 kts | 3° |
| 2026-05-04 18:59 | 52.36668 | 4.71225 | 1477 ft | 183 kts | 4° |
| 2026-05-04 18:59 | 52.38016 | 4.71276 | 2272 ft | 205 kts | 2° |
| 2026-05-04 19:00 | 52.39518 | 4.71326 | 2900 ft | 226 kts | 1° |
| 2026-05-04 19:00 | 52.41093 | 4.71457 | 3715 ft | 236 kts | 3° |
| 2026-05-04 19:00 | 52.42755 | 4.71356 | 4541 ft | 247 kts | 345° |
| 2026-05-04 19:00 | 52.44291 | 4.69963 | 5304 ft | 259 kts | 320° |
| 2026-05-04 19:01 | 52.45640 | 4.67916 | 6319 ft | 267 kts | 314° |
| 2026-05-04 19:01 | 52.46932 | 4.65759 | 7502 ft | 267 kts | 312° |
| 2026-05-04 19:01 | 52.48243 | 4.63540 | 8507 ft | 273 kts | 312° |
| 2026-05-04 19:01 | 52.49585 | 4.61304 | 9582 ft | 277 kts | 312° |
| 2026-05-04 19:02 | 52.50958 | 4.59036 | 10450 ft | 286 kts | 313° |
| 2026-05-04 19:02 | 52.52516 | 4.56763 | 10767 ft | 316 kts | 323° |
| 2026-05-04 19:02 | 52.54479 | 4.54790 | 11058 ft | 344 kts | 328° |
| 2026-05-04 19:02 | 52.56623 | 4.52874 | 11738 ft | 355 kts | 330° |
| 2026-05-04 19:03 | 52.58802 | 4.50945 | 12814 ft | 354 kts | 330° |
| 2026-05-04 19:03 | 52.60944 | 4.49014 | 13751 ft | 358 kts | 329° |
| 2026-05-04 19:03 | 52.62287 | 4.47781 | 14279 ft | 359 kts | 329° |
| 2026-05-04 19:03 | 52.63218 | 4.46918 | 14594 ft | 362 kts | 329° |
| 2026-05-04 19:04 | 52.64614 | 4.45616 | 15017 ft | 366 kts | 329° |
| 2026-05-04 19:04 | 52.66847 | 4.43516 | 15631 ft | 374 kts | 328° |
| 2026-05-04 19:05 | 52.69116 | 4.41376 | 16358 ft | 378 kts | 328° |
| 2026-05-04 19:05 | 52.71161 | 4.39442 | 16968 ft | 383 kts | 328° |
| 2026-05-04 19:05 | 52.72467 | 4.38207 | 17373 ft | 384 kts | 328° |
| 2026-05-04 19:06 | 52.73980 | 4.36668 | 17821 ft | 386 kts | 321° |
| 2026-05-04 19:06 | 52.75812 | 4.33461 | 18448 ft | 385 kts | 300° |
| 2026-05-04 19:06 | 52.77150 | 4.29634 | 19104 ft | 386 kts | 297° |
| 2026-05-04 19:06 | 52.78443 | 4.25734 | 19674 ft | 389 kts | 297° |
| 2026-05-04 19:07 | 52.79741 | 4.21790 | 20255 ft | 391 kts | 297° |
| 2026-05-04 19:07 | 52.81048 | 4.17835 | 20859 ft | 393 kts | 297° |
| 2026-05-04 19:07 | 52.82367 | 4.13872 | 21425 ft | 395 kts | 297° |
| 2026-05-04 19:07 | 52.83701 | 4.09881 | 21981 ft | 397 kts | 297° |
| 2026-05-04 19:08 | 52.85044 | 4.05874 | 22507 ft | 399 kts | 297° |
| 2026-05-04 19:08 | 52.86375 | 4.01903 | 23029 ft | 401 kts | 296° |
| 2026-05-04 19:08 | 52.87695 | 3.97964 | 23485 ft | 404 kts | 296° |
| 2026-05-04 19:08 | 52.89061 | 3.93882 | 23889 ft | 407 kts | 296° |
| 2026-05-04 19:09 | 52.90435 | 3.89767 | 24255 ft | 410 kts | 296° |
| 2026-05-04 19:09 | 52.91818 | 3.85618 | 24607 ft | 413 kts | 296° |
| 2026-05-04 19:09 | 52.93211 | 3.81433 | 24945 ft | 416 kts | 296° |
| 2026-05-04 19:09 | 52.94612 | 3.77219 | 25285 ft | 418 kts | 295° |
| 2026-05-04 19:10 | 52.96016 | 3.72985 | 25698 ft | 419 kts | 295° |
| 2026-05-04 19:10 | 52.96945 | 3.70183 | 25972 ft | 419 kts | 295° |
| 2026-05-04 19:10 | 52.98832 | 3.64479 | 26371 ft | 423 kts | 295° |
| 2026-05-04 19:10 | 53.00249 | 3.60193 | 26641 ft | 427 kts | 295° |
| 2026-05-04 19:11 | 53.01680 | 3.55856 | 26938 ft | 429 kts | 295° |
| 2026-05-04 19:11 | 53.03121 | 3.51507 | 27244 ft | 431 kts | 295° |
| 2026-05-04 19:11 | 53.04574 | 3.47131 | 27521 ft | 433 kts | 295° |
| 2026-05-04 19:11 | 53.06032 | 3.42732 | 27790 ft | 435 kts | 295° |
| 2026-05-04 19:12 | 53.07497 | 3.38302 | 28056 ft | 438 kts | 295° |
| 2026-05-04 19:12 | 53.10213 | 3.29294 | 28547 ft | 438 kts | 286° |
| 2026-05-04 19:12 | 53.11021 | 3.24363 | 28796 ft | 436 kts | 279° |
| 2026-05-04 19:13 | 53.11643 | 3.19487 | 29085 ft | 437 kts | 278° |
| 2026-05-04 19:13 | 53.12266 | 3.14542 | 29442 ft | 436 kts | 278° |
| 2026-05-04 19:13 | 53.12893 | 3.09611 | 29816 ft | 435 kts | 278° |
| 2026-05-04 19:13 | 53.13528 | 3.04681 | 30176 ft | 435 kts | 279° |
| 2026-05-04 19:14 | 53.14161 | 2.99821 | 30350 ft | 437 kts | 279° |
| 2026-05-04 19:14 | 53.14802 | 2.94916 | 30569 ft | 438 kts | 279° |
| 2026-05-04 19:14 | 53.15450 | 2.89972 | 30874 ft | 436 kts | 279° |
| 2026-05-04 19:14 | 53.16095 | 2.85033 | 31185 ft | 435 kts | 279° |
| 2026-05-04 19:15 | 53.16736 | 2.80105 | 31449 ft | 435 kts | 279° |
| 2026-05-04 19:15 | 53.17375 | 2.75176 | 31682 ft | 435 kts | 279° |
| 2026-05-04 19:15 | 53.18011 | 2.70244 | 31942 ft | 435 kts | 280° |
| 2026-05-04 19:15 | 53.18645 | 2.65313 | 32217 ft | 434 kts | 280° |
| 2026-05-04 19:16 | 53.19269 | 2.60452 | 32471 ft | 434 kts | 280° |
| 2026-05-04 19:16 | 53.19899 | 2.55525 | 32710 ft | 434 kts | 280° |
| 2026-05-04 19:16 | 53.20526 | 2.50598 | 32888 ft | 435 kts | 280° |
| 2026-05-04 19:16 | 53.21151 | 2.45649 | 33036 ft | 437 kts | 280° |
| 2026-05-04 19:17 | 53.21774 | 2.40680 | 33277 ft | 437 kts | 280° |
| 2026-05-04 19:17 | 53.22392 | 2.35723 | 33543 ft | 436 kts | 280° |
| 2026-05-04 19:17 | 53.23006 | 2.30788 | 33808 ft | 435 kts | 280° |
| 2026-05-04 19:17 | 53.23620 | 2.25836 | 33973 ft | 436 kts | 281° |
| 2026-05-04 19:18 | 53.24236 | 2.20847 | 34047 ft | 440 kts | 281° |
| 2026-05-04 19:18 | 53.25479 | 2.10734 | 34064 ft | 449 kts | 281° |
| 2026-05-04 19:19 | 53.26737 | 2.00423 | 34058 ft | 457 kts | 281° |
| 2026-05-04 19:19 | 53.27990 | 1.90075 | 34059 ft | 463 kts | 281° |
| 2026-05-04 19:20 | 53.29264 | 1.79470 | 34063 ft | 467 kts | 281° |
| 2026-05-04 19:20 | 53.30531 | 1.68842 | 34063 ft | 469 kts | 281° |
| 2026-05-04 19:21 | 53.31799 | 1.58134 | 34056 ft | 466 kts | 281° |
| 2026-05-04 19:21 | 53.32177 | 1.54918 | 34029 ft | 457 kts | 281° |
| 2026-05-04 19:22 | 53.33342 | 1.45576 | 34051 ft | 447 kts | 283° |
| 2026-05-04 19:23 | 53.34827 | 1.35547 | 34063 ft | 446 kts | 284° |
| 2026-05-04 19:23 | 53.36333 | 1.25485 | 34062 ft | 446 kts | 284° |
| 2026-05-04 19:24 | 53.37800 | 1.15397 | 34051 ft | 446 kts | 283° |
| 2026-05-04 19:24 | 53.38867 | 1.07936 | 34064 ft | 446 kts | 283° |
| 2026-05-04 19:25 | 53.40025 | 0.99778 | 34049 ft | 446 kts | 284° |
| 2026-05-04 19:25 | 53.41453 | 0.89656 | 34054 ft | 448 kts | 284° |
| 2026-05-04 19:26 | 53.42882 | 0.79461 | 34061 ft | 450 kts | 283° |
| 2026-05-04 19:26 | 53.44299 | 0.69297 | 34063 ft | 451 kts | 283° |
| 2026-05-04 19:27 | 53.45720 | 0.59023 | 34054 ft | 453 kts | 283° |
| 2026-05-04 19:27 | 53.47142 | 0.48683 | 34049 ft | 454 kts | 284° |
| 2026-05-04 19:28 | 53.48557 | 0.38327 | 34062 ft | 455 kts | 284° |
| 2026-05-04 19:28 | 53.49976 | 0.27935 | 34053 ft | 456 kts | 284° |
| 2026-05-04 19:29 | 53.51391 | 0.17530 | 34047 ft | 457 kts | 283° |
| 2026-05-04 19:29 | 53.52796 | 0.07103 | 34055 ft | 457 kts | 283° |
| 2026-05-04 19:30 | 53.54144 | -0.03110 | 34041 ft | 457 kts | 284° |
| 2026-05-04 19:30 | 53.55512 | -0.13561 | 34049 ft | 456 kts | 283° |
| 2026-05-04 19:31 | 53.56870 | -0.23984 | 34052 ft | 456 kts | 283° |
| 2026-05-04 19:31 | 53.58221 | -0.34420 | 34050 ft | 456 kts | 283° |
| 2026-05-04 19:32 | 53.59569 | -0.44884 | 34044 ft | 456 kts | 283° |
| 2026-05-04 19:32 | 53.60897 | -0.55253 | 34049 ft | 456 kts | 283° |
| 2026-05-04 19:33 | 53.62226 | -0.65711 | 34048 ft | 456 kts | 283° |
| 2026-05-04 19:33 | 53.63544 | -0.76161 | 34048 ft | 456 kts | 283° |
| 2026-05-04 19:34 | 53.64855 | -0.86617 | 34046 ft | 456 kts | 283° |
| 2026-05-04 19:34 | 53.66156 | -0.97082 | 34044 ft | 455 kts | 283° |
| 2026-05-04 19:35 | 53.67434 | -1.07412 | 34033 ft | 455 kts | 283° |
| 2026-05-04 19:35 | 53.68711 | -1.17807 | 34040 ft | 455 kts | 283° |
| 2026-05-04 19:36 | 53.69986 | -1.28274 | 34036 ft | 456 kts | 283° |
| 2026-05-04 19:36 | 53.71257 | -1.38770 | 34029 ft | 456 kts | 283° |
| 2026-05-04 19:37 | 53.72500 | -1.49284 | 34028 ft | 457 kts | 282° |
| 2026-05-04 19:37 | 53.73696 | -1.59815 | 34028 ft | 456 kts | 282° |
| 2026-05-04 19:38 | 53.74853 | -1.70342 | 34018 ft | 455 kts | 282° |
| 2026-05-04 19:38 | 53.75989 | -1.80853 | 34021 ft | 453 kts | 282° |
| 2026-05-04 19:39 | 53.77106 | -1.91249 | 34044 ft | 451 kts | 282° |
| 2026-05-04 19:39 | 53.78207 | -2.01549 | 34047 ft | 450 kts | 282° |
| 2026-05-04 19:40 | 53.79310 | -2.11961 | 34049 ft | 449 kts | 282° |
| 2026-05-04 19:40 | 53.80401 | -2.22339 | 34050 ft | 448 kts | 281° |
| 2026-05-04 19:41 | 53.81480 | -2.32703 | 34055 ft | 447 kts | 281° |
| 2026-05-04 19:41 | 53.82551 | -2.43081 | 34052 ft | 447 kts | 281° |
| 2026-05-04 19:42 | 53.83614 | -2.53462 | 34054 ft | 448 kts | 281° |
| 2026-05-04 19:42 | 53.84668 | -2.63865 | 34049 ft | 448 kts | 281° |
| 2026-05-04 19:43 | 53.85709 | -2.74225 | 34060 ft | 449 kts | 281° |
| 2026-05-04 19:43 | 53.86749 | -2.84665 | 34058 ft | 450 kts | 281° |
| 2026-05-04 19:44 | 53.87781 | -2.95134 | 34075 ft | 451 kts | 281° |
| 2026-05-04 19:44 | 53.88795 | -3.05501 | 34075 ft | 451 kts | 281° |
| 2026-05-04 19:45 | 53.89813 | -3.16018 | 34068 ft | 452 kts | 281° |
| 2026-05-04 19:45 | 53.90822 | -3.26547 | 34071 ft | 452 kts | 281° |
| 2026-05-04 19:46 | 53.91822 | -3.37061 | 34067 ft | 452 kts | 281° |
| 2026-05-04 19:46 | 53.92320 | -3.42332 | 33890 ft | 454 kts | 281° |
| 2026-05-04 19:46 | 53.92818 | -3.47636 | 33535 ft | 450 kts | 281° |
| 2026-05-04 19:46 | 53.93301 | -3.52838 | 33070 ft | 445 kts | 281° |
| 2026-05-04 19:47 | 53.93767 | -3.57923 | 32688 ft | 439 kts | 281° |
| 2026-05-04 19:47 | 53.94232 | -3.63030 | 32238 ft | 435 kts | 281° |
| 2026-05-04 19:47 | 53.94692 | -3.68080 | 31846 ft | 430 kts | 280° |
| 2026-05-04 19:47 | 53.95143 | -3.73073 | 31420 ft | 426 kts | 280° |
| 2026-05-04 19:48 | 53.95593 | -3.78013 | 31006 ft | 421 kts | 281° |
| 2026-05-04 19:48 | 53.96317 | -3.82804 | 30595 ft | 416 kts | 291° |
| 2026-05-04 19:48 | 53.97472 | -3.87249 | 30324 ft | 407 kts | 300° |
| 2026-05-04 19:48 | 53.98881 | -3.91382 | 29891 ft | 403 kts | 302° |
| 2026-05-04 19:49 | 54.00305 | -3.95460 | 29467 ft | 399 kts | 302° |
| 2026-05-04 19:49 | 54.01705 | -3.99499 | 29040 ft | 395 kts | 301° |
| 2026-05-04 19:49 | 54.03046 | -4.03422 | 28648 ft | 391 kts | 301° |
| 2026-05-04 19:49 | 54.04396 | -4.07418 | 28234 ft | 387 kts | 301° |
| 2026-05-04 19:50 | 54.05726 | -4.11375 | 27837 ft | 384 kts | 301° |
| 2026-05-04 19:50 | 54.07139 | -4.15215 | 27412 ft | 380 kts | 306° |
| 2026-05-04 19:50 | 54.08662 | -4.18876 | 26999 ft | 377 kts | 307° |
| 2026-05-04 19:50 | 54.10176 | -4.22428 | 26605 ft | 374 kts | 307° |
| 2026-05-04 19:51 | 54.10180 | -4.22437 | 26604 ft | 374 kts | 307° |
| 2026-05-04 19:51 | 54.11076 | -4.24546 | 26368 ft | 373 kts | 307° |
| 2026-05-04 19:51 | 54.12584 | -4.28127 | 25981 ft | 370 kts | 307° |
| 2026-05-04 19:51 | 54.14069 | -4.31695 | 25593 ft | 368 kts | 306° |
| 2026-05-04 19:52 | 54.15547 | -4.35260 | 25212 ft | 366 kts | 306° |
| 2026-05-04 19:52 | 54.16520 | -4.37616 | 24958 ft | 364 kts | 306° |
| 2026-05-04 19:52 | 54.17973 | -4.41142 | 24570 ft | 362 kts | 305° |
| 2026-05-04 19:52 | 54.19422 | -4.44658 | 24189 ft | 361 kts | 305° |
| 2026-05-04 19:53 | 54.20860 | -4.48150 | 23820 ft | 359 kts | 305° |
| 2026-05-04 19:53 | 54.22293 | -4.51634 | 23394 ft | 358 kts | 305° |
| 2026-05-04 19:53 | 54.23723 | -4.55117 | 22956 ft | 356 kts | 305° |
| 2026-05-04 19:53 | 54.25133 | -4.58567 | 22555 ft | 354 kts | 305° |
| 2026-05-04 19:54 | 54.26537 | -4.62020 | 22156 ft | 352 kts | 305° |
| 2026-05-04 19:54 | 54.27926 | -4.65446 | 21778 ft | 349 kts | 305° |
| 2026-05-04 19:54 | 54.29305 | -4.68850 | 21396 ft | 347 kts | 305° |
| 2026-05-04 19:54 | 54.30657 | -4.72190 | 21039 ft | 344 kts | 305° |
| 2026-05-04 19:55 | 54.32014 | -4.75550 | 20672 ft | 342 kts | 304° |
| 2026-05-04 19:55 | 54.33361 | -4.78887 | 20311 ft | 339 kts | 304° |
| 2026-05-04 19:55 | 54.34700 | -4.82208 | 19932 ft | 338 kts | 304° |
| 2026-05-04 19:55 | 54.36034 | -4.85522 | 19574 ft | 336 kts | 304° |
| 2026-05-04 19:56 | 54.37356 | -4.88808 | 19218 ft | 334 kts | 304° |
| 2026-05-04 19:56 | 54.38674 | -4.92090 | 18848 ft | 334 kts | 304° |
| 2026-05-04 19:56 | 54.39987 | -4.95363 | 18514 ft | 331 kts | 304° |
| 2026-05-04 19:56 | 54.41291 | -4.98617 | 18133 ft | 330 kts | 304° |
| 2026-05-04 19:57 | 54.42561 | -5.01790 | 17740 ft | 328 kts | 304° |
| 2026-05-04 19:57 | 54.43850 | -5.05017 | 17371 ft | 326 kts | 304° |
| 2026-05-04 19:57 | 54.45133 | -5.08209 | 17051 ft | 322 kts | 304° |
| 2026-05-04 19:57 | 54.46411 | -5.11363 | 16695 ft | 320 kts | 304° |
| 2026-05-04 19:58 | 54.47663 | -5.14457 | 16349 ft | 318 kts | 304° |
| 2026-05-04 19:58 | 54.48924 | -5.17584 | 15998 ft | 316 kts | 304° |
| 2026-05-04 19:58 | 54.50178 | -5.20665 | 15649 ft | 314 kts | 306° |
| 2026-05-04 19:58 | 54.51667 | -5.23413 | 15303 ft | 314 kts | 319° |
| 2026-05-04 19:59 | 54.53371 | -5.25749 | 14972 ft | 312 kts | 321° |
| 2026-05-04 19:59 | 54.55085 | -5.28030 | 14628 ft | 311 kts | 321° |
| 2026-05-04 19:59 | 54.56794 | -5.30301 | 14288 ft | 310 kts | 321° |
| 2026-05-04 19:59 | 54.58492 | -5.32572 | 13949 ft | 308 kts | 321° |
| 2026-05-04 20:00 | 54.60182 | -5.34846 | 13579 ft | 307 kts | 320° |
| 2026-05-04 20:00 | 54.61830 | -5.37072 | 13459 ft | 300 kts | 320° |
| 2026-05-04 20:00 | 54.63462 | -5.39285 | 13527 ft | 303 kts | 320° |
| 2026-05-04 20:00 | 54.65129 | -5.41553 | 13303 ft | 306 kts | 320° |
| 2026-05-04 20:01 | 54.66809 | -5.43841 | 13113 ft | 308 kts | 320° |
| 2026-05-04 20:01 | 54.68504 | -5.46153 | 13085 ft | 309 kts | 320° |
| 2026-05-04 20:01 | 54.70165 | -5.48417 | 13083 ft | 300 kts | 320° |
| 2026-05-04 20:01 | 54.71767 | -5.50605 | 13061 ft | 285 kts | 320° |
| 2026-05-04 20:02 | 54.73269 | -5.52657 | 13056 ft | 266 kts | 320° |
| 2026-05-04 20:02 | 54.74687 | -5.54597 | 13068 ft | 258 kts | 320° |
| 2026-05-04 20:02 | 54.76052 | -5.56607 | 13067 ft | 257 kts | 308° |
| 2026-05-04 20:02 | 54.76814 | -5.59334 | 13105 ft | 253 kts | 279° |
| 2026-05-04 20:03 | 54.76751 | -5.62358 | 13040 ft | 252 kts | 255° |
| 2026-05-04 20:03 | 54.75972 | -5.65060 | 12735 ft | 253 kts | 232° |
| 2026-05-04 20:03 | 54.74687 | -5.67149 | 12285 ft | 255 kts | 221° |
| 2026-05-04 20:03 | 54.73155 | -5.68657 | 11768 ft | 262 kts | 197° |
| 2026-05-04 20:04 | 54.71355 | -5.69206 | 11375 ft | 262 kts | 189° |
| 2026-05-04 20:04 | 54.69528 | -5.69562 | 10967 ft | 261 kts | 189° |
| 2026-05-04 20:04 | 54.67746 | -5.69884 | 10574 ft | 260 kts | 188° |
| 2026-05-04 20:04 | 54.65924 | -5.70203 | 10192 ft | 259 kts | 188° |
| 2026-05-04 20:05 | 54.64158 | -5.70508 | 10121 ft | 262 kts | 188° |
| 2026-05-04 20:05 | 54.62332 | -5.70824 | 10084 ft | 263 kts | 188° |
| 2026-05-04 20:05 | 54.60522 | -5.71138 | 10064 ft | 259 kts | 188° |
| 2026-05-04 20:05 | 54.58744 | -5.71452 | 10064 ft | 257 kts | 188° |
| 2026-05-04 20:06 | 54.56959 | -5.71770 | 10083 ft | 258 kts | 188° |
| 2026-05-04 20:06 | 54.55167 | -5.72093 | 10086 ft | 259 kts | 188° |
| 2026-05-04 20:06 | 54.53372 | -5.72417 | 10084 ft | 260 kts | 188° |
| 2026-05-04 20:06 | 54.51566 | -5.72742 | 10085 ft | 260 kts | 188° |
| 2026-05-04 20:07 | 54.49782 | -5.73063 | 9975 ft | 256 kts | 188° |
| 2026-05-04 20:07 | 54.48011 | -5.73379 | 9748 ft | 255 kts | 188° |
| 2026-05-04 20:07 | 54.46247 | -5.73693 | 9418 ft | 256 kts | 188° |
| 2026-05-04 20:07 | 54.44480 | -5.74007 | 9150 ft | 255 kts | 188° |
| 2026-05-04 20:08 | 54.42723 | -5.74319 | 8884 ft | 253 kts | 188° |
| 2026-05-04 20:08 | 54.40973 | -5.74628 | 8618 ft | 252 kts | 188° |
| 2026-05-04 20:08 | 54.39226 | -5.74936 | 8360 ft | 251 kts | 188° |
| 2026-05-04 20:08 | 54.37484 | -5.75241 | 8101 ft | 251 kts | 188° |
| 2026-05-04 20:09 | 54.35775 | -5.75540 | 7863 ft | 249 kts | 188° |
| 2026-05-04 20:09 | 54.34052 | -5.75838 | 7606 ft | 249 kts | 188° |
| 2026-05-04 20:09 | 54.32344 | -5.76244 | 7333 ft | 246 kts | 201° |
| 2026-05-04 20:09 | 54.30930 | -5.77743 | 7055 ft | 237 kts | 233° |
| 2026-05-04 20:10 | 54.30225 | -5.80204 | 6791 ft | 229 kts | 264° |
| 2026-05-04 20:10 | 54.30403 | -5.82851 | 6527 ft | 225 kts | 293° |
| 2026-05-04 20:10 | 54.31081 | -5.85250 | 6274 ft | 223 kts | 298° |
| 2026-05-04 20:10 | 54.31812 | -5.87607 | 5995 ft | 223 kts | 298° |
| 2026-05-04 20:11 | 54.32543 | -5.89949 | 5739 ft | 222 kts | 298° |
| 2026-05-04 20:11 | 54.33271 | -5.92282 | 5477 ft | 221 kts | 298° |
| 2026-05-04 20:11 | 54.33996 | -5.94608 | 5225 ft | 220 kts | 298° |
| 2026-05-04 20:11 | 54.34714 | -5.96922 | 4964 ft | 220 kts | 298° |
| 2026-05-04 20:12 | 54.35431 | -5.99239 | 4720 ft | 220 kts | 298° |
| 2026-05-04 20:12 | 54.36147 | -6.01435 | 4479 ft | 219 kts | 307° |
| 2026-05-04 20:12 | 54.37265 | -6.03056 | 4374 ft | 206 kts | 328° |
| 2026-05-04 20:12 | 54.38460 | -6.04258 | 4281 ft | 191 kts | 328° |
| 2026-05-04 20:13 | 54.39548 | -6.05353 | 4112 ft | 179 kts | 328° |
| 2026-05-04 20:13 | 54.40628 | -6.06441 | 3752 ft | 177 kts | 328° |
| 2026-05-04 20:13 | 54.41677 | -6.07494 | 3408 ft | 178 kts | 332° |
| 2026-05-04 20:13 | 54.42883 | -6.07858 | 3069 ft | 180 kts | 8° |
| 2026-05-04 20:14 | 54.44120 | -6.07398 | 3047 ft | 183 kts | 9° |
| 2026-05-04 20:14 | 54.45353 | -6.06856 | 2984 ft | 185 kts | 24° |
| 2026-05-04 20:14 | 54.46420 | -6.05644 | 2983 ft | 182 kts | 32° |
| 2026-05-04 20:14 | 54.47475 | -6.04425 | 2987 ft | 184 kts | 31° |
| 2026-05-04 20:15 | 54.48521 | -6.03194 | 2957 ft | 178 kts | 32° |
| 2026-05-04 20:15 | 54.49521 | -6.01998 | 2849 ft | 171 kts | 32° |
| 2026-05-04 20:15 | 54.50476 | -6.00852 | 2619 ft | 164 kts | 32° |
| 2026-05-04 20:15 | 54.51080 | -6.00127 | 2472 ft | 160 kts | 32° |
| 2026-05-04 20:16 | 54.51989 | -5.99036 | 2259 ft | 159 kts | 32° |
| 2026-05-04 20:16 | 54.52903 | -5.97939 | 2044 ft | 161 kts | 32° |
| 2026-05-04 20:16 | 54.53824 | -5.96834 | 1818 ft | 161 kts | 32° |
| 2026-05-04 20:16 | 54.54740 | -5.95735 | 1594 ft | 160 kts | 32° |
| 2026-05-04 20:17 | 54.55655 | -5.94637 | 1374 ft | 160 kts | 32° |
| 2026-05-04 20:17 | 54.56564 | -5.93546 | 1145 ft | 158 kts | 33° |
| 2026-05-04 20:17 | 54.57416 | -5.92522 | 944 ft | 145 kts | 33° |
| 2026-05-04 20:17 | 54.58237 | -5.91539 | 749 ft | 144 kts | 34° |
| 2026-05-04 20:18 | 54.59047 | -5.90561 | 562 ft | 140 kts | 34° |
| 2026-05-04 20:18 | 54.59842 | -5.89610 | 350 ft | 137 kts | 33° |
| 2026-05-04 20:18 | 54.60602 | -5.88703 | 182 ft | 132 kts | 33° |
| 2026-05-04 20:18 | 54.61340 | -5.87813 | 28 ft | 125 kts | 32° |
| 2026-05-04 20:19 | 54.61907 | -5.87134 | 17 ft | 52 kts | 34° |
| 2026-05-04 20:19 | 54.62120 | -5.86882 | 15 ft | 40 kts | 34° |
| 2026-05-04 20:19 | 54.62364 | -5.86588 | 21 ft | 34 kts | 36° |
| 2026-05-04 20:19 | 54.62453 | -5.86426 | 18 ft | 11 kts | 346° |
| 2026-05-04 20:20 | 54.62452 | -5.86484 | 19 ft | 8 kts | 210° |
| 2026-05-04 20:20 | 54.62367 | -5.86586 | 21 ft | 24 kts | 215° |
| 2026-05-04 20:20 | 54.62165 | -5.86830 | 16 ft | 46 kts | 214° |
| 2026-05-04 20:20 | 54.61890 | -5.87155 | 18 ft | 26 kts | 210° |
| 2026-05-04 20:21 | 54.61799 | -5.87088 | 18 ft | 16 kts | 124° |
| 2026-05-04 20:21 | 54.61753 | -5.86998 | 20 ft | 12 kts | 157° |
| 2026-05-04 20:21 | 54.61609 | -5.87130 | 20 ft | 12 kts | 214° |
| 2026-05-04 20:22 | 54.61577 | -5.87144 | 20 ft | 3 kts | 139° |
| 2026-05-04 20:22 | 54.61558 | -5.87099 | 20 ft | 6 kts | 147° |
| 2026-05-04 20:22 | 54.61546 | -5.87092 | 20 ft | 0 kts | 160° |